Time;durP1;ratioP1;P1;durP2;ratioP2;P2;SDS_P1;SDS_P2;PMS_P1;PMS_P2;Temp;Humidity;BMP_temperature;BMP_pressure;BME280_temperature;BME280_humidity;BME280_pressure;Samples;Min_cycle;Max_cycle;Signal;HPM_P1;HPM_P2
2021/04/21 00:01:40;;;;;;;2.53;1.60;;;;;;;26.20;28.39;96464.81;5041042;28;20012;-25
2021/04/21 00:04:06;;;;;;;1.85;1.67;;;;;;;26.21;28.32;96471.75;5055712;28;20052;-26
2021/04/21 00:06:32;;;;;;;2.78;1.70;;;;;;;26.21;28.47;96476.19;5046862;28;20523;-25
2021/04/21 00:08:58;;;;;;;2.05;1.70;;;;;;;26.21;28.36;96470.94;5056273;28;20065;-27
2021/04/21 00:11:23;;;;;;;1.42;1.30;;;;;;;26.21;28.57;96470.94;5042395;28;20106;-25
2021/04/21 00:13:48;;;;;;;2.92;1.75;;;;;;;26.19;28.30;96468.41;5059114;28;20032;-23
2021/04/21 00:16:14;;;;;;;2.60;1.80;;;;;;;26.20;28.30;96464.00;5044012;28;20039;-27
2021/04/21 00:18:41;;;;;;;1.70;1.60;;;;;;;26.19;28.38;96462.28;5058747;28;20020;-26
2021/04/21 00:21:07;;;;;;;2.17;1.50;;;;;;;26.19;28.29;96464.91;5060256;28;20025;-25
2021/04/21 00:23:32;;;;;;;1.63;1.50;;;;;;;26.19;28.29;96462.28;5056535;28;20558;-25
2021/04/21 00:25:58;;;;;;;2.60;1.60;;;;;;;26.19;28.35;96462.28;5060064;28;20036;-24
2021/04/21 00:28:25;;;;;;;2.30;1.60;;;;;;;26.19;28.31;96457.03;5063393;28;20035;-26
2021/04/21 00:30:51;;;;;;;2.25;1.55;;;;;;;26.17;28.47;96456.31;5061705;28;20080;-24
2021/04/21 00:33:17;;;;;;;2.13;1.63;;;;;;;26.18;28.43;96455.34;5033441;28;20024;-28
2021/04/21 00:35:42;;;;;;;2.47;1.50;;;;;;;26.18;28.26;96452.72;5064857;28;20027;-24
2021/04/21 00:38:18;;;;;;;2.50;1.77;;;;;;;26.17;28.23;96449.28;5046420;28;20047;-25
2021/04/21 00:40:43;;;;;;;2.20;1.70;;;;;;;26.17;28.43;96448.41;5042537;28;20119;-25
2021/04/21 00:43:24;;;;;;;1.92;1.70;;;;;;;26.18;28.27;96450.09;5056205;28;20786;-26
2021/04/21 00:45:56;;;;;;;2.03;1.70;;;;;;;26.17;28.25;96443.16;5061683;28;20028;-26
2021/04/21 00:48:40;;;;;;;2.40;1.60;;;;;;;26.17;28.41;96443.16;5061958;28;20040;-24
2021/04/21 00:51:11;;;;;;;2.45;1.52;;;;;;;26.16;28.41;96437.06;5065095;28;20515;-24
2021/04/21 00:53:39;;;;;;;1.75;1.60;;;;;;;26.16;28.21;96436.22;5060607;28;20165;-27
2021/04/21 00:56:23;;;;;;;1.65;1.55;;;;;;;26.16;28.41;96430.97;5056117;28;20119;-26
2021/04/21 00:58:52;;;;;;;1.70;1.60;;;;;;;26.15;28.39;96435.38;5065256;28;20942;-25
2021/04/21 01:01:18;;;;;;;5.18;1.70;;;;;;;26.15;28.28;96435.38;5059186;28;20040;-24
2021/04/21 01:03:43;;;;;;;2.72;1.48;;;;;;;26.15;28.31;96431.88;5064393;28;20040;-26
2021/04/21 01:06:11;;;;;;;8.60;3.47;;;;;;;26.15;28.30;96431.88;5047678;28;20028;-29
2021/04/21 01:08:54;;;;;;;7.55;2.40;;;;;;;26.10;28.22;96422.50;5065190;28;20143;-27
2021/04/21 01:11:34;;;;;;;2.65;1.63;;;;;;;26.14;28.42;96424.97;5053508;28;20023;-21
2021/04/21 01:14:02;;;;;;;4.18;1.73;;;;;;;26.14;28.39;96420.56;5057118;28;20552;-24
2021/04/21 01:16:29;;;;;;;3.58;1.88;;;;;;;26.13;28.43;96420.66;5045847;28;20588;-29
2021/04/21 01:18:56;;;;;;;3.03;1.90;;;;;;;26.13;28.26;96421.50;5021687;28;20028;-27
2021/04/21 01:21:50;;;;;;;2.88;1.70;;;;;;;26.13;28.31;96425.91;5058699;28;20045;-26
2021/04/21 01:24:44;;;;;;;2.58;1.63;;;;;;;26.13;28.48;96420.66;5051518;28;20154;-25
2021/04/21 01:27:16;;;;;;;3.42;1.70;;;;;;;26.13;28.53;96418.88;5064290;28;20036;-28
2021/04/21 01:29:52;;;;;;;1.83;1.70;;;;;;;26.13;28.34;96416.25;5061116;28;20601;-26
2021/04/21 01:32:25;;;;;;;2.83;1.67;;;;;;;26.12;28.43;96419.78;5056367;28;20047;-28
2021/04/21 01:34:51;;;;;;;2.88;1.40;;;;;;;26.13;28.42;96420.66;5060743;28;20031;-26
2021/04/21 01:37:18;;;;;;;3.30;1.95;;;;;;;26.12;28.34;96418.97;5058395;28;23263;-28
2021/04/21 01:40:20;;;;;;;2.70;1.60;;;;;;;26.12;28.43;96418.97;5059828;28;20035;-28
2021/04/21 01:42:47;;;;;;;3.78;1.60;;;;;;;26.12;28.41;96413.72;5062031;28;20036;-26
2021/04/21 01:45:15;;;;;;;2.90;1.70;;;;;;;26.11;28.35;96420.75;5061292;28;20024;-28
2021/04/21 01:47:42;;;;;;;2.42;1.73;;;;;;;26.10;28.50;96421.69;5057601;28;20654;-27
2021/04/21 01:50:08;;;;;;;2.78;1.58;;;;;;;26.10;28.33;96427.75;5039147;28;20865;-22
2021/04/21 01:52:41;;;;;;;2.30;1.45;;;;;;;26.11;28.50;96433.88;5060910;28;20035;-27
2021/04/21 01:55:20;;;;;;;2.42;1.58;;;;;;;26.09;28.49;96423.44;5055237;28;20097;-27
2021/04/21 01:58:23;;;;;;;1.65;1.40;;;;;;;26.09;28.35;96420.81;5059448;28;21095;-24
2021/04/21 02:00:53;;;;;;;1.77;1.60;;;;;;;26.09;28.64;96425.25;5056850;28;20036;-23
2021/04/21 02:03:24;;;;;;;2.20;1.45;;;;;;;26.08;28.51;96424.41;5042535;28;20096;-22
2021/04/21 02:06:07;;;;;;;3.28;1.58;;;;;;;26.06;28.54;96426.28;5061877;28;20027;-28
2021/04/21 02:09:02;;;;;;;1.65;1.55;;;;;;;26.05;28.35;96423.75;5059060;28;20546;-31
2021/04/21 02:11:30;;;;;;;2.00;1.70;;;;;;;26.03;28.45;96421.22;5055698;28;20459;-26
2021/04/21 02:14:04;;;;;;;1.48;1.38;;;;;;;26.03;28.37;96426.47;5045072;28;20484;-26
2021/04/21 02:16:40;;;;;;;2.65;1.42;;;;;;;26.03;28.54;96426.47;5065114;28;20043;-24
2021/04/21 02:19:11;;;;;;;2.35;1.60;;;;;;;26.03;28.63;96429.09;5061525;28;20040;-26
2021/04/21 02:21:45;;;;;;;1.75;1.63;;;;;;;26.03;28.49;96431.72;5064607;28;20032;-25
2021/04/21 02:24:39;;;;;;;2.42;1.50;;;;;;;26.02;28.64;96424.78;5062268;28;20043;-27
2021/04/21 02:27:10;;;;;;;2.55;1.42;;;;;;;26.03;28.60;96430.84;5045073;28;20046;-26
2021/04/21 02:30:17;;;;;;;2.05;1.30;;;;;;;26.01;28.59;96428.31;5059193;28;20479;-25
2021/04/21 02:33:10;;;;;;;3.58;1.80;;;;;;;26.02;28.39;96424.78;5021132;28;20039;-25
2021/04/21 02:35:42;;;;;;;3.63;1.42;;;;;;;26.01;28.57;96423.06;5060096;28;20025;-23
2021/04/21 02:38:46;;;;;;;1.48;1.20;;;;;;;26.01;28.52;96420.44;5061375;28;20058;-24
2021/04/21 02:41:16;;;;;;;1.58;1.30;;;;;;;26.00;28.56;96426.63;5054393;28;20040;-25
2021/04/21 02:44:06;;;;;;;2.25;1.30;;;;;;;25.99;28.54;96427.56;5051203;28;20021;-25
2021/04/21 02:46:43;;;;;;;1.30;1.20;;;;;;;26.00;28.52;96424.00;5056246;28;20016;-26
2021/04/21 02:49:42;;;;;;;2.55;1.35;;;;;;;25.99;28.50;96427.56;5064566;28;20032;-25
2021/04/21 02:52:22;;;;;;;1.52;1.35;;;;;;;25.98;28.53;96428.53;5054470;28;20712;-28
2021/04/21 02:55:14;;;;;;;1.83;1.48;;;;;;;25.98;28.74;96423.28;5064403;28;20086;-24
2021/04/21 02:57:40;;;;;;;3.85;1.70;;;;;;;25.98;28.54;96420.66;5057093;28;20024;-25
2021/04/21 03:00:06;;;;;;;2.13;1.60;;;;;;;25.96;28.53;96419.88;5057217;28;20663;-26
2021/04/21 03:02:45;;;;;;;3.38;1.38;;;;;;;25.94;28.63;96416.50;5057746;28;20028;-28
2021/04/21 03:05:26;;;;;;;2.05;1.52;;;;;;;25.97;28.51;96418.94;5043913;28;20116;-25
2021/04/21 03:08:08;;;;;;;1.90;1.48;;;;;;;25.97;28.67;96416.31;5046562;28;20170;-23
2021/04/21 03:10:44;;;;;;;2.13;1.50;;;;;;;25.96;28.50;96425.97;5051702;28;20326;-24
2021/04/21 03:13:16;;;;;;;2.55;1.60;;;;;;;26.01;28.59;96417.81;5054735;28;20024;-30
2021/04/21 03:15:45;;;;;;;2.13;1.63;;;;;;;26.00;28.58;96416.13;5055270;28;20093;-28
2021/04/21 03:18:19;;;;;;;1.88;1.40;;;;;;;26.00;28.58;96413.50;5049738;28;20054;-28
2021/04/21 03:21:15;;;;;;;1.40;1.30;;;;;;;25.96;28.63;96417.25;5045955;28;20040;-26
2021/04/21 03:23:43;;;;;;;2.03;1.25;;;;;;;25.97;28.63;96416.31;5051458;28;20116;-26
2021/04/21 03:26:09;;;;;;;1.92;1.65;;;;;;;25.95;28.48;96418.19;5045759;28;20024;-29
2021/04/21 03:28:38;;;;;;;2.40;1.48;;;;;;;25.95;28.65;96412.94;5058759;28;20669;-28
2021/04/21 03:31:04;;;;;;;2.97;1.60;;;;;;;25.98;28.60;96414.53;5044864;28;20020;-27
2021/04/21 03:33:33;;;;;;;1.92;1.20;;;;;;;25.99;28.59;96403.94;5040053;28;20024;-24
2021/04/21 03:36:00;;;;;;;1.92;1.40;;;;;;;26.00;28.52;96404.81;5060597;28;20036;-24
2021/04/21 03:38:25;;;;;;;1.77;1.48;;;;;;;25.99;28.61;96401.31;5058484;28;20025;-27
2021/04/21 03:40:51;;;;;;;1.80;1.40;;;;;;;25.99;28.61;96403.94;5060476;28;20085;-27
2021/04/21 03:43:16;;;;;;;1.50;1.40;;;;;;;26.00;28.47;96400.38;5064228;28;20635;-25
2021/04/21 03:45:45;;;;;;;2.17;1.50;;;;;;;26.00;28.45;96400.38;5060062;28;20027;-26
2021/04/21 03:48:10;;;;;;;1.52;1.17;;;;;;;26.00;28.63;96397.75;5060601;28;20153;-26
2021/04/21 03:50:36;;;;;;;1.98;1.20;;;;;;;26.00;28.43;96389.88;5053879;28;20480;-25
2021/04/21 03:53:06;;;;;;;2.58;1.70;;;;;;;26.01;28.59;96391.56;5062284;28;20028;-24
2021/04/21 03:55:31;;;;;;;1.95;1.40;;;;;;;26.00;28.50;96395.13;5059828;28;20421;-27
2021/04/21 03:57:58;;;;;;;1.58;1.17;;;;;;;25.98;28.46;96391.75;5065540;28;20020;-28
2021/04/21 04:00:24;;;;;;;1.75;1.20;;;;;;;26.00;28.57;96396.94;5040723;28;20586;-24
2021/04/21 04:02:51;;;;;;;1.70;1.40;;;;;;;26.01;28.31;96390.72;5054947;28;20496;-27
2021/04/21 04:05:19;;;;;;;1.58;1.40;;;;;;;26.00;28.37;96389.06;5061953;28;20028;-25
2021/04/21 04:07:44;;;;;;;2.05;1.33;;;;;;;26.00;28.59;96395.13;5061207;28;20028;-24
2021/04/21 04:10:12;;;;;;;1.30;1.20;;;;;;;26.00;28.51;96389.88;5059958;28;20028;-25
2021/04/21 04:12:39;;;;;;;2.10;1.20;;;;;;;25.99;28.57;96393.44;5066432;28;20105;-26
2021/04/21 04:15:05;;;;;;;2.22;1.48;;;;;;;25.98;28.43;96391.75;5062539;28;20671;-25
2021/04/21 04:17:30;;;;;;;1.58;1.38;;;;;;;26.01;28.40;96393.34;5061068;28;20032;-24
2021/04/21 04:19:55;;;;;;;2.65;1.25;;;;;;;25.98;28.54;96391.75;5048921;28;20067;-28
2021/04/21 04:22:21;;;;;;;1.40;1.30;;;;;;;26.00;28.54;96395.13;5060370;28;20020;-26
2021/04/21 04:24:54;;;;;;;2.17;1.33;;;;;;;25.98;28.30;96391.75;5064921;28;20027;-25
2021/04/21 04:27:21;;;;;;;1.73;1.50;;;;;;;25.98;28.49;96391.75;5064471;28;20666;-25
2021/04/21 04:29:46;;;;;;;1.60;1.48;;;;;;;25.97;28.54;96395.31;5061109;28;20097;-26
2021/04/21 04:32:13;;;;;;;1.65;1.30;;;;;;;25.97;28.52;96395.31;5060978;28;20480;-25
2021/04/21 04:34:43;;;;;;;1.33;1.23;;;;;;;25.97;28.37;96400.56;5064495;28;20094;-26
2021/04/21 04:37:11;;;;;;;1.73;1.30;;;;;;;25.97;28.38;96400.56;5060480;28;20541;-24
2021/04/21 04:39:37;;;;;;;2.03;1.50;;;;;;;25.97;28.39;96400.56;5057787;28;20039;-26
2021/04/21 04:42:02;;;;;;;2.20;1.52;;;;;;;25.97;28.45;96400.56;5045952;28;20020;-24
2021/04/21 04:44:28;;;;;;;2.65;1.50;;;;;;;25.97;28.30;96408.44;5064488;28;20032;-27
2021/04/21 04:46:53;;;;;;;2.40;1.70;;;;;;;25.96;28.23;96409.38;5037862;28;20098;-25
2021/04/21 04:49:19;;;;;;;2.42;1.60;;;;;;;25.95;28.39;96407.69;5063221;28;20028;-23
2021/04/21 04:51:45;;;;;;;4.35;1.45;;;;;;;25.95;28.41;96407.69;5065040;28;20021;-25
2021/04/21 04:54:11;;;;;;;2.05;1.40;;;;;;;25.95;28.37;96412.94;5059492;28;20507;-27
2021/04/21 04:56:37;;;;;;;1.50;1.40;;;;;;;25.96;28.45;96425.13;5061426;28;20086;-21
2021/04/21 04:59:04;;;;;;;2.15;1.40;;;;;;;25.95;28.31;96424.31;5063565;28;20101;-20
2021/04/21 05:01:48;;;;;;;2.38;1.40;;;;;;;25.95;28.31;96418.19;5060129;28;20059;-20
2021/04/21 05:04:14;;;;;;;2.05;1.30;;;;;;;25.94;28.41;96421.75;5062793;28;20076;-26
2021/04/21 05:06:40;;;;;;;2.00;1.45;;;;;;;25.94;28.44;96421.75;5062942;28;20107;-23
2021/04/21 05:09:06;;;;;;;1.70;1.60;;;;;;;25.92;28.45;96424.47;5048431;28;20036;-27
2021/04/21 05:11:31;;;;;;;1.77;1.45;;;;;;;25.93;28.52;96427.97;5045324;28;20016;-27
2021/04/21 05:13:57;;;;;;;3.13;1.45;;;;;;;25.92;28.53;96424.47;5044376;28;20492;-23
2021/04/21 05:16:28;;;;;;;1.80;1.40;;;;;;;25.93;28.38;96425.34;5060812;28;20424;-25
2021/04/21 05:18:58;;;;;;;2.35;1.35;;;;;;;25.93;28.36;96430.59;5061779;28;20056;-23
2021/04/21 05:21:58;;;;;;;1.67;1.58;;;;;;;25.92;28.22;96436.75;5061703;28;20024;-24
2021/04/21 05:24:40;;;;;;;2.33;1.48;;;;;;;25.93;28.49;96446.34;5056056;28;20110;-26
2021/04/21 05:27:37;;;;;;;2.13;1.63;;;;;;;25.91;28.31;96445.56;5046395;28;20024;-27
2021/04/21 05:30:56;;;;;;;2.03;1.60;;;;;;;25.91;28.42;96442.94;5057507;28;20483;-24
2021/04/21 05:33:33;;;;;;;1.70;1.50;;;;;;;25.91;28.41;96448.19;5025351;28;20192;-25
2021/04/21 05:36:36;;;;;;;2.65;1.60;;;;;;;25.90;28.45;96441.25;5061972;28;20053;-25
2021/04/21 05:39:39;;;;;;;1.73;1.50;;;;;;;25.89;28.27;96445.66;5062829;28;20036;-23
2021/04/21 05:42:23;;;;;;;1.88;1.50;;;;;;;25.89;28.54;96444.81;5065375;28;20054;-25
2021/04/21 05:45:26;;;;;;;2.15;1.38;;;;;;;25.88;28.48;96449.22;5065218;28;20109;-27
2021/04/21 05:48:29;;;;;;;2.10;1.45;;;;;;;25.87;28.44;96451.94;5061544;28;20099;-21
2021/04/21 05:51:22;;;;;;;3.47;1.50;;;;;;;25.86;28.37;96451.09;5054129;28;20028;-27
2021/04/21 05:54:25;;;;;;;1.55;1.45;;;;;;;25.86;28.34;96452.88;5062594;28;20645;-24
2021/04/21 05:57:05;;;;;;;1.40;1.30;;;;;;;25.87;28.28;96446.69;5067078;28;20047;-25
2021/04/21 05:59:52;;;;;;;2.05;1.42;;;;;;;25.87;28.33;96451.94;5057233;28;21805;-27
2021/04/21 06:02:18;;;;;;;2.30;1.50;;;;;;;25.85;28.32;96446.75;5062310;28;20032;-24
2021/04/21 06:04:44;;;;;;;1.42;1.33;;;;;;;25.86;28.37;96455.50;5046820;28;20027;-25
2021/04/21 06:07:13;;;;;;;1.45;1.20;;;;;;;25.85;28.39;96451.19;5061311;28;20035;-25
2021/04/21 06:09:39;;;;;;;3.78;1.58;;;;;;;25.86;28.52;96453.72;5058804;28;20420;-25
2021/04/21 06:12:12;;;;;;;2.08;1.40;;;;;;;25.87;28.51;96458.03;5058419;28;20161;-27
2021/04/21 06:14:37;;;;;;;1.95;1.50;;;;;;;25.87;28.54;96451.94;5062180;28;20020;-25
2021/04/21 06:17:03;;;;;;;2.00;1.60;;;;;;;25.87;28.48;96457.19;5063135;28;20965;-24
2021/04/21 06:19:28;;;;;;;1.67;1.58;;;;;;;25.87;28.46;96462.44;5061530;28;20032;-25
2021/04/21 06:21:54;;;;;;;2.05;1.55;;;;;;;25.88;28.45;96464.09;5063595;28;20039;-24
2021/04/21 06:24:21;;;;;;;1.67;1.35;;;;;;;25.88;28.51;96464.09;5057967;28;20507;-25
2021/04/21 06:26:46;;;;;;;1.88;1.40;;;;;;;25.87;28.35;96465.91;5057952;28;20040;-27
2021/04/21 06:29:12;;;;;;;3.45;1.80;;;;;;;25.89;28.48;96471.06;5051216;28;20601;-28
2021/04/21 06:31:45;;;;;;;5.25;1.80;;;;;;;25.90;28.44;96467.50;5059089;28;20066;-26
2021/04/21 06:34:12;;;;;;;5.20;2.00;;;;;;;25.90;28.41;96470.13;5056517;28;20081;-26
2021/04/21 06:36:45;;;;;;;3.30;2.22;;;;;;;25.90;28.35;96475.38;5056358;28;20024;-25
2021/04/21 06:39:11;;;;;;;3.97;1.90;;;;;;;25.90;28.35;96481.47;5064493;28;20032;-26
2021/04/21 06:41:36;;;;;;;7.68;2.60;;;;;;;25.91;28.51;96479.69;5041360;28;20829;-23
2021/04/21 06:44:02;;;;;;;3.72;2.60;;;;;;;25.91;28.21;96480.53;5062961;28;20029;-26
2021/04/21 06:46:28;;;;;;;12.35;4.20;;;;;;;25.88;28.15;96474.59;5056439;28;20168;-25
2021/04/21 06:48:58;;;;;;;9.82;4.00;;;;;;;25.93;28.25;96480.47;5054931;28;20048;-25
2021/04/21 06:51:27;;;;;;;14.65;3.63;;;;;;;25.93;28.18;96483.09;5056326;28;20023;-25
2021/04/21 06:53:53;;;;;;;9.35;4.72;;;;;;;25.92;28.02;96476.97;5058095;28;20063;-26
2021/04/21 06:56:31;;;;;;;12.90;5.53;;;;;;;25.93;27.73;96477.84;5054797;28;20042;-28
2021/04/21 06:58:57;;;;;;;8.60;5.75;;;;;;;25.92;27.55;96470.88;5054890;28;20023;-25
2021/04/21 07:01:28;;;;;;;16.42;6.82;;;;;;;25.90;27.11;96467.50;5034452;28;20557;-22
2021/04/21 07:04:09;;;;;;;8.35;6.10;;;;;;;25.89;27.35;96477.16;5054391;28;20658;-24
2021/04/21 07:06:34;;;;;;;15.77;6.57;;;;;;;25.87;27.16;96472.94;5053999;28;20032;-27
2021/04/21 07:08:59;;;;;;;11.52;7.22;;;;;;;25.87;26.95;96480.81;5056941;28;20104;-23
2021/04/21 07:11:25;;;;;;;8.85;7.07;;;;;;;25.85;27.08;96478.25;5039793;28;20366;-23
2021/04/21 07:13:50;;;;;;;10.45;7.60;;;;;;;25.85;26.93;96477.44;5052957;28;20702;-26
2021/04/21 07:16:20;;;;;;;9.75;7.53;;;;;;;25.82;26.92;96479.28;5054188;28;20039;-26
2021/04/21 07:18:49;;;;;;;13.27;6.90;;;;;;;25.82;26.84;96476.66;5058470;28;20046;-29
2021/04/21 07:21:15;;;;;;;11.32;7.22;;;;;;;25.82;26.92;96475.84;5059609;28;20020;-28
2021/04/21 07:23:45;;;;;;;10.35;7.18;;;;;;;25.82;26.87;96475.84;5059784;28;20035;-27
2021/04/21 07:26:10;;;;;;;11.88;7.93;;;;;;;25.81;26.70;96474.13;5059054;28;20713;-21
2021/04/21 07:28:36;;;;;;;7.95;6.97;;;;;;;25.80;26.80;96475.06;5048113;28;20081;-25
2021/04/21 07:31:13;;;;;;;11.75;7.45;;;;;;;25.80;26.73;96478.53;5039053;28;20031;-26
2021/04/21 07:33:42;;;;;;;10.93;7.68;;;;;;;25.80;26.68;96473.28;5059722;28;20071;-24
2021/04/21 07:36:19;;;;;;;9.82;6.70;;;;;;;25.81;26.75;96479.38;5059097;28;20035;-24
2021/04/21 07:38:45;;;;;;;11.15;7.50;;;;;;;25.81;26.68;96469.72;5058955;28;20016;-28
2021/04/21 07:41:12;;;;;;;9.82;7.82;;;;;;;25.78;26.74;96469.91;5056787;28;20028;-28
2021/04/21 07:43:40;;;;;;;11.50;7.80;;;;;;;25.82;26.67;96481.09;5061125;28;20089;-25
2021/04/21 07:46:05;;;;;;;10.00;7.10;;;;;;;25.83;26.59;96482.78;5060387;28;20032;-30
2021/04/21 07:48:31;;;;;;;8.93;6.95;;;;;;;25.84;26.71;96479.19;5059391;28;20602;-26
2021/04/21 07:50:56;;;;;;;8.73;7.13;;;;;;;25.85;26.70;96485.31;5060145;28;20026;-24
2021/04/21 07:53:22;;;;;;;9.10;7.18;;;;;;;25.86;26.66;96487.00;5059270;28;20326;-28
2021/04/21 07:55:47;;;;;;;9.35;7.45;;;;;;;25.83;26.75;96480.97;5063327;28;20037;-28
2021/04/21 07:58:13;;;;;;;9.43;7.40;;;;;;;25.86;26.57;96476.50;5060380;28;20024;-29
2021/04/21 08:00:38;;;;;;;11.43;7.65;;;;;;;25.87;26.67;96486.06;5057230;28;20031;-26
2021/04/21 08:03:04;;;;;;;12.95;7.15;;;;;;;25.86;26.39;96477.34;5061441;28;20739;-25
2021/04/21 08:05:31;;;;;;;10.77;8.23;;;;;;;25.88;26.42;96488.59;5059373;28;20069;-24
2021/04/21 08:07:58;;;;;;;9.30;7.20;;;;;;;25.88;26.67;96479.84;5055820;28;20700;-28
2021/04/21 08:10:25;;;;;;;9.60;6.93;;;;;;;25.87;26.53;96489.53;5057695;28;20205;-27
2021/04/21 08:12:58;;;;;;;10.10;7.03;;;;;;;25.88;26.61;96488.59;5056050;28;20040;-23
2021/04/21 08:15:34;;;;;;;55.72;10.48;;;;;;;25.87;26.35;96483.44;5055221;28;20042;-27
2021/04/21 08:18:00;;;;;;;44.53;13.15;;;;;;;25.80;25.78;96478.53;5056005;28;20032;-24
2021/04/21 08:20:38;;;;;;;14.48;11.48;;;;;;;25.75;25.61;96490.25;5062001;28;20036;-26
2021/04/21 08:23:05;;;;;;;15.75;12.30;;;;;;;25.70;25.21;96482.63;5061057;28;20034;-25
2021/04/21 08:25:30;;;;;;;14.38;12.13;;;;;;;25.65;25.00;96484.66;5061515;28;20179;-24
2021/04/21 08:27:56;;;;;;;13.75;11.23;;;;;;;25.59;24.50;96482.41;5056290;28;20028;-27
2021/04/21 08:30:22;;;;;;;16.60;12.48;;;;;;;25.54;24.51;96490.50;5058165;28;20461;-24
2021/04/21 08:32:47;;;;;;;16.30;11.50;;;;;;;25.49;24.25;96489.91;5057366;28;20484;-28
2021/04/21 08:35:13;;;;;;;15.43;11.70;;;;;;;25.44;24.10;96490.19;5072794;22;20036;-61
2021/04/21 08:37:39;;;;;;;12.27;10.45;;;;;;;25.41;24.03;96488.59;5028319;28;20049;-63
2021/04/21 08:40:08;;;;;;;13.27;9.80;;;;;;;25.37;23.86;96488.84;5033679;28;20055;-63
2021/04/21 08:42:35;;;;;;;10.43;8.82;;;;;;;25.33;23.55;96490.78;5036612;28;20653;-61
2021/04/21 08:45:00;;;;;;;14.48;11.15;;;;;;;25.28;23.02;96491.03;5006894;28;20371;-62
2021/04/21 08:47:26;;;;;;;16.45;12.10;;;;;;;25.23;22.98;96479.97;4996070;28;20040;-62
2021/04/21 08:49:55;;;;;;;14.70;10.75;;;;;;;25.20;23.24;96488.00;5018328;28;20572;-62
2021/04/21 08:52:22;;;;;;;12.65;10.45;;;;;;;25.18;23.48;96492.50;4986863;28;20025;-63
2021/04/21 08:54:48;;;;;;;11.50;9.90;;;;;;;25.16;23.08;96481.22;5010547;28;20033;-63
2021/04/21 08:57:13;;;;;;;14.00;9.73;;;;;;;25.14;23.58;96481.31;5002165;28;20057;-63
2021/04/21 08:59:39;;;;;;;12.75;8.10;;;;;;;25.14;23.67;96486.56;5004056;28;20337;-62
2021/04/21 09:02:04;;;;;;;8.93;6.57;;;;;;;25.14;23.62;96486.56;5007693;28;20108;-62
2021/04/21 09:04:30;;;;;;;13.93;6.35;;;;;;;25.16;23.73;96489.09;5015903;28;20700;-62
2021/04/21 09:06:55;;;;;;;12.18;6.50;;;;;;;25.18;23.94;96488.06;5018255;28;20028;-62
2021/04/21 09:09:21;;;;;;;15.55;5.85;;;;;;;25.22;24.25;96488.78;5023596;28;20029;-62
2021/04/21 09:11:46;;;;;;;13.18;5.68;;;;;;;25.25;24.42;96493.81;5012471;28;20029;-62
2021/04/21 09:14:12;;;;;;;16.42;6.10;;;;;;;25.28;24.38;96501.53;5023089;28;20079;-62
2021/04/21 09:16:37;;;;;;;18.60;6.22;;;;;;;25.33;24.45;96489.94;5007850;28;20040;-61
2021/04/21 09:19:10;;;;;;;16.45;6.45;;;;;;;25.36;24.65;96489.78;5026610;28;20033;-62
2021/04/21 09:21:36;;;;;;;17.05;6.22;;;;;;;25.39;24.52;96492.22;5027414;28;20466;-61
2021/04/21 09:24:02;;;;;;;10.20;5.72;;;;;;;25.40;24.83;96486.88;5021698;28;20032;-62
2021/04/21 09:26:34;;;;;;;16.50;5.90;;;;;;;25.44;24.70;96485.78;5008176;28;20397;-62
2021/04/21 09:28:59;;;;;;;16.17;5.57;;;;;;;25.48;24.79;96482.97;5010372;28;20546;-61
2021/04/21 09:31:26;;;;;;;17.95;5.65;;;;;;;25.50;24.77;96475.84;5024842;28;20033;-62
2021/04/21 09:34:14;;;;;;;13.82;5.72;;;;;;;25.53;24.92;96473.94;5029893;28;20090;-62
2021/04/21 09:36:43;;;;;;;10.57;5.60;;;;;;;25.55;24.94;96472.03;5022328;28;20028;-63
2021/04/21 09:39:08;;;;;;;13.90;5.30;;;;;;;25.56;25.18;96471.13;5023982;28;20020;-63
2021/04/21 09:41:34;;;;;;;10.05;4.78;;;;;;;25.60;25.21;96470.97;5032090;28;20453;-62
2021/04/21 09:44:20;;;;;;;12.27;5.40;;;;;;;25.63;25.17;96468.19;5024050;28;20044;-61
2021/04/21 09:46:47;;;;;;;10.77;4.88;;;;;;;25.63;25.34;96465.56;5019780;28;20128;-62
2021/04/21 09:49:34;;;;;;;10.50;5.13;;;;;;;25.65;25.25;96471.53;5011933;28;20104;-63
2021/04/21 09:52:22;;;;;;;7.80;4.40;;;;;;;25.67;25.35;96473.16;5022600;28;20175;-62
2021/04/21 09:54:48;;;;;;;11.80;4.70;;;;;;;25.68;25.39;96460.88;5026313;28;20075;-62
2021/04/21 09:57:15;;;;;;;11.32;4.88;;;;;;;25.70;25.66;96466.88;5021889;28;20571;-63
2021/04/21 09:59:41;;;;;;;9.77;4.57;;;;;;;25.70;25.67;96467.72;5023651;28;20029;-63
2021/04/21 10:02:35;;;;;;;8.10;4.20;;;;;;;25.73;25.79;96460.63;5016952;28;20267;-62
2021/04/21 10:05:26;;;;;;;9.77;4.20;;;;;;;25.74;25.80;96460.50;5016172;28;20033;-62
2021/04/21 10:08:12;;;;;;;8.80;4.45;;;;;;;25.76;25.76;96460.44;5008614;28;20375;-61
2021/04/21 10:10:38;;;;;;;7.85;4.35;;;;;;;25.77;25.82;96460.34;5026235;28;20573;-63
2021/04/21 10:13:18;;;;;;;9.65;4.50;;;;;;;25.78;26.09;96463.81;4999770;28;20094;-63
2021/04/21 10:15:43;;;;;;;7.85;4.43;;;;;;;25.78;25.94;96464.66;5004779;28;20033;-62
2021/04/21 10:18:11;;;;;;;14.38;4.60;;;;;;;25.80;25.87;96452.31;5019892;28;20029;-62
2021/04/21 10:20:37;;;;;;;6.85;4.00;;;;;;;25.82;26.19;96452.22;4993898;28;20097;-63
2021/04/21 10:23:04;;;;;;;8.50;3.92;;;;;;;25.83;26.03;96452.09;4987984;28;20021;-62
2021/04/21 10:25:32;;;;;;;11.57;4.40;;;;;;;25.83;25.99;96451.28;5009326;28;20558;-64
2021/04/21 10:27:58;;;;;;;7.50;3.90;;;;;;;25.82;26.31;96458.28;5013768;28;20136;-63
2021/04/21 10:30:24;;;;;;;7.28;4.00;;;;;;;25.81;26.53;96453.13;5008018;28;20129;-62
2021/04/21 10:32:49;;;;;;;6.22;3.50;;;;;;;25.84;27.03;96458.22;5014440;28;20037;-64
2021/04/21 10:35:14;;;;;;;6.63;4.00;;;;;;;25.84;27.14;96455.59;4997127;28;20036;-60
2021/04/21 10:37:45;;;;;;;7.60;3.90;;;;;;;25.87;27.61;96459.81;4995329;28;20412;-62
2021/04/21 10:40:11;;;;;;;11.10;3.90;;;;;;;25.91;27.79;96453.44;5014167;28;20049;-63
2021/04/21 10:42:46;;;;;;;7.60;3.50;;;;;;;26.01;27.97;96459.81;5010247;28;20562;-61
2021/04/21 10:45:13;;;;;;;7.47;3.65;;;;;;;26.11;27.86;96449.63;5014263;28;20059;-61
2021/04/21 10:47:46;;;;;;;9.05;3.70;;;;;;;26.22;27.72;96446.34;5017571;28;20029;-63
2021/04/21 10:50:13;;;;;;;6.00;3.53;;;;;;;26.33;27.64;96437.84;5015987;28;20606;-60
2021/04/21 10:52:42;;;;;;;6.38;2.97;;;;;;;26.44;27.65;96445.09;5009892;28;20029;-62
2021/04/21 10:55:11;;;;;;;7.68;3.30;;;;;;;26.58;27.56;96441.63;5027884;28;20393;-63
2021/04/21 10:57:37;;;;;;;5.97;3.33;;;;;;;26.68;27.45;96447.97;5005497;28;20623;-59
2021/04/21 11:00:10;;;;;;;5.45;3.35;;;;;;;26.79;27.04;96447.31;5011476;28;20028;-64
2021/04/21 11:02:45;;;;;;;7.03;3.28;;;;;;;26.91;27.13;96439.56;5010586;28;20033;-60
2021/04/21 11:05:10;;;;;;;6.88;2.78;;;;;;;27.02;26.92;96444.19;5017369;28;20071;-62
2021/04/21 11:07:37;;;;;;;6.97;3.58;;;;;;;27.10;26.98;96437.50;5018124;28;20037;-63
2021/04/21 11:10:04;;;;;;;7.13;3.35;;;;;;;27.18;26.80;96433.50;5015804;28;20067;-63
2021/04/21 11:12:54;;;;;;;8.30;3.30;;;;;;;27.29;26.47;96432.81;5012727;28;20056;-61
2021/04/21 11:15:39;;;;;;;6.50;3.67;;;;;;;27.37;26.47;96434.03;5017382;28;20140;-62
2021/04/21 11:18:07;;;;;;;5.55;3.17;;;;;;;27.46;26.32;96434.38;5016065;28;20057;-64
2021/04/21 11:20:48;;;;;;;6.18;3.63;;;;;;;27.52;26.44;96431.31;5014333;28;20414;-65
2021/04/21 11:26:22;;;;;;;5.90;3.33;;;;;;;27.60;26.45;96431.66;5020289;28;20508;-62
2021/04/21 11:29:16;;;;;;;7.88;3.30;;;;;;;27.64;26.45;96425.28;5027592;28;20048;-62
2021/04/21 11:34:24;;;;;;;7.40;3.30;;;;;;;27.71;26.23;96424.84;5021000;28;20148;-58
2021/04/21 11:36:56;;;;;;;6.88;3.25;;;;;;;27.73;26.11;96418.53;5021078;28;20025;-58
2021/04/21 11:39:40;;;;;;;5.53;3.17;;;;;;;27.75;26.10;96428.97;5023301;28;20029;-61
2021/04/21 11:42:24;;;;;;;8.55;3.30;;;;;;;27.75;26.03;96421.06;5021821;28;20810;-59
2021/04/21 11:44:50;;;;;;;7.68;3.58;;;;;;;27.73;26.01;96408.00;5021264;28;20124;-59
2021/04/21 11:47:34;;;;;;;6.63;3.17;;;;;;;27.72;26.05;96416.03;5024306;28;20021;-59
2021/04/21 11:49:59;;;;;;;6.97;3.20;;;;;;;27.69;26.04;96417.06;5016246;28;20047;-59
2021/04/21 11:52:43;;;;;;;14.65;3.30;;;;;;;27.63;26.50;96415.69;5003583;28;22905;-61
2021/04/21 11:55:09;;;;;;;11.18;3.05;;;;;;;27.60;26.67;96409.75;5013958;28;20029;-63
2021/04/21 11:57:35;;;;;;;7.05;2.80;;;;;;;27.59;26.65;96410.69;5020090;28;20196;-63
2021/04/21 12:00:01;;;;;;;6.68;2.90;;;;;;;27.58;26.68;96404.59;5011144;28;20488;-62